createdAt,value
2023-11-21T00:02:16.491Z,92.17
2023-11-21T00:04:42.927Z,92.54
2023-11-21T00:07:09.340Z,92.66
2023-11-21T00:09:35.776Z,92.65
2023-11-21T00:12:02.212Z,92.85
2023-11-21T00:14:28.678Z,92.98
2023-11-21T00:16:55.162Z,92.86
2023-11-21T00:19:21.534Z,92.95
2023-11-21T00:21:47.886Z,92.98
2023-11-21T00:24:14.293Z,92.81
2023-11-21T00:26:40.698Z,92.35
2023-11-21T00:29:07.188Z,92.23
2023-11-21T00:31:33.560Z,92.78
2023-11-21T00:34:00.005Z,93.04
2023-11-21T00:36:26.364Z,92.99
2023-11-21T00:38:52.872Z,93.39
2023-11-21T00:41:19.215Z,93.28
2023-11-21T00:43:45.765Z,93.59
2023-11-21T00:46:12.200Z,94.40
2023-11-21T00:48:38.605Z,94.32
2023-11-21T00:51:05.033Z,94.04
2023-11-21T00:53:31.480Z,93.93
2023-11-21T00:55:57.865Z,93.94
2023-11-21T00:58:24.335Z,94.21
2023-11-21T01:00:50.726Z,94.35
2023-11-21T01:03:17.256Z,94.47
2023-11-21T01:05:43.404Z,94.15
2023-11-21T01:08:09.809Z,94.19
2023-11-21T01:10:36.256Z,94.72
2023-11-21T01:13:02.605Z,94.99
2023-11-21T01:15:29.026Z,95.25
2023-11-21T01:17:55.428Z,95.67
2023-11-21T01:20:21.896Z,95.51
2023-11-21T01:22:48.266Z,95.82
2023-11-21T01:25:14.706Z,96.07
2023-11-21T01:27:41.045Z,96.56
2023-11-21T01:30:07.471Z,96.73
2023-11-21T01:32:34.032Z,96.52
2023-11-21T01:35:00.310Z,96.55
2023-11-21T01:37:26.691Z,97.08
2023-11-21T01:39:53.038Z,96.98
2023-11-21T01:42:19.444Z,96.56
2023-11-21T01:44:45.796Z,96.46
2023-11-21T01:47:12.355Z,96.45
2023-11-21T01:49:38.698Z,96.37
2023-11-21T01:52:05.101Z,96.03
2023-11-21T01:54:31.507Z,96.35
2023-11-21T01:56:57.936Z,96.67
2023-11-21T01:59:24.285Z,96.67
2023-11-21T02:01:50.754Z,96.23
2023-11-21T02:04:17.167Z,96.41
2023-11-21T02:06:43.749Z,96.62
2023-11-21T02:09:10.145Z,96.51
2023-11-21T02:11:36.576Z,96.69
2023-11-21T02:14:02.964Z,96.85
2023-11-21T02:16:29.404Z,96.22
2023-11-21T02:18:55.855Z,95.95
2023-11-21T02:21:22.199Z,96.19
2023-11-21T02:23:48.595Z,96.45
2023-11-21T02:26:15.003Z,96.79
2023-11-21T02:28:41.416Z,97.18
2023-11-21T02:31:07.864Z,97.11
2023-11-21T02:33:34.226Z,96.75
2023-11-21T02:36:00.616Z,96.26
2023-11-21T02:38:26.977Z,96.30
2023-11-21T02:40:53.452Z,96.43
2023-11-21T02:43:19.882Z,96.27
2023-11-21T02:45:46.207Z,96.24
2023-11-21T02:48:12.684Z,95.90
2023-11-21T02:50:39.083Z,95.52
2023-11-21T02:53:05.484Z,95.46
2023-11-21T02:55:32.016Z,95.13
2023-11-21T02:57:58.308Z,94.55
2023-11-21T03:00:24.698Z,94.39
2023-11-21T03:02:51.212Z,94.26
2023-11-21T03:05:17.600Z,94.35
2023-11-21T03:07:43.959Z,94.23
2023-11-21T03:10:10.955Z,94.30
2023-11-21T03:12:36.800Z,94.78
2023-11-21T03:15:03.267Z,95.56
2023-11-21T03:17:29.658Z,95.81
2023-11-21T03:19:56.124Z,95.92
2023-11-21T03:22:22.424Z,96.00
2023-11-21T03:24:48.807Z,96.06
2023-11-21T03:27:15.254Z,96.10
2023-11-21T03:29:41.684Z,96.20
2023-11-21T03:32:08.066Z,96.26
2023-11-21T03:34:34.549Z,96.31
2023-11-21T03:37:00.952Z,96.42
2023-11-21T03:39:27.423Z,96.86
2023-11-21T03:41:53.743Z,97.18
2023-11-21T03:44:20.171Z,97.32
2023-11-21T03:46:46.584Z,97.81
2023-11-21T03:49:13.010Z,97.89
2023-11-21T03:51:39.403Z,98.41
2023-11-21T03:54:05.795Z,98.42
2023-11-21T03:56:32.138Z,98.55
2023-11-21T03:58:58.572Z,98.88
2023-11-21T04:01:24.972Z,99.38
2023-11-21T04:03:51.598Z,99.45
2023-11-21T04:06:17.774Z,99.47
2023-11-21T04:08:44.210Z,99.67
2023-11-21T04:11:10.566Z,99.89
2023-11-21T04:13:37.023Z,99.91
2023-11-21T04:16:03.375Z,100.00
2023-11-21T04:18:29.775Z,100.00
2023-11-21T04:20:56.177Z,100.00
2023-11-21T04:23:22.588Z,100.00
2023-11-21T04:25:49.059Z,100.00
2023-11-21T04:28:15.426Z,100.00
2023-11-21T04:30:41.867Z,100.00
2023-11-21T04:33:08.231Z,100.00
2023-11-21T04:35:34.592Z,100.00
2023-11-21T04:38:00.986Z,100.00
2023-11-21T04:40:27.446Z,100.00
2023-11-21T04:42:53.879Z,100.00
2023-11-21T04:45:20.230Z,100.00
2023-11-21T04:47:46.758Z,100.00
2023-11-21T04:50:13.019Z,100.00
2023-11-21T04:52:39.530Z,100.00
2023-11-21T04:55:05.854Z,100.00
2023-11-21T04:57:32.264Z,100.00
2023-11-21T04:59:58.627Z,100.00
2023-11-21T05:02:33.611Z,100.00
2023-11-21T05:04:51.427Z,100.00
2023-11-21T05:07:17.825Z,100.00
2023-11-21T05:09:44.163Z,100.00
2023-11-21T05:12:10.615Z,100.00
2023-11-21T05:14:37.144Z,100.00
2023-11-21T05:17:03.705Z,100.00
2023-11-21T05:19:30.011Z,100.00
2023-11-21T05:21:56.451Z,100.00
2023-11-21T05:24:22.850Z,100.00
2023-11-21T05:26:49.278Z,100.00
2023-11-21T05:29:15.683Z,100.00
2023-11-21T05:31:42.207Z,99.83
2023-11-21T05:34:08.470Z,99.55
2023-11-21T05:36:34.909Z,99.04
2023-11-21T05:39:01.271Z,98.89
2023-11-21T05:41:27.737Z,99.26
2023-11-21T05:43:54.126Z,99.40
2023-11-21T05:46:20.582Z,99.32
2023-11-21T05:48:47.008Z,99.45
2023-11-21T05:51:13.429Z,99.59
2023-11-21T05:53:39.810Z,99.97
2023-11-21T05:56:06.244Z,100.00
2023-11-21T05:58:32.750Z,100.00
2023-11-21T06:00:59.094Z,100.00
2023-11-21T06:03:25.507Z,100.00
2023-11-21T06:05:51.967Z,100.00
2023-11-21T06:08:18.377Z,100.00
2023-11-21T06:10:44.856Z,100.00
2023-11-21T06:13:11.199Z,100.00
2023-11-21T06:15:37.607Z,100.00
2023-11-21T06:18:04.110Z,99.90
2023-11-21T06:20:30.408Z,99.64
2023-11-21T06:22:56.783Z,98.87
2023-11-21T06:25:23.244Z,97.87
2023-11-21T06:27:49.563Z,97.38
2023-11-21T06:30:15.976Z,96.90
2023-11-21T06:32:42.437Z,95.97
2023-11-21T06:35:08.756Z,94.90
2023-11-21T06:37:35.171Z,93.98
2023-11-21T06:40:01.656Z,94.09
2023-11-21T06:42:28.035Z,93.92
2023-11-21T06:44:54.511Z,93.42
2023-11-21T06:47:20.997Z,92.82
2023-11-21T06:49:47.335Z,90.89
2023-11-21T06:52:13.707Z,89.80
2023-11-21T06:54:40.125Z,89.42
2023-11-21T06:57:06.506Z,88.37
2023-11-21T06:59:32.932Z,87.15
2023-11-21T07:01:59.422Z,85.59
2023-11-21T07:04:25.950Z,84.10
2023-11-21T07:06:52.353Z,83.21
2023-11-21T07:09:18.795Z,82.93
2023-11-21T07:11:45.153Z,82.56
2023-11-21T07:14:11.687Z,82.44
2023-11-21T07:16:38.201Z,81.70
2023-11-21T07:19:04.716Z,81.67
2023-11-21T07:21:31.121Z,82.65
2023-11-21T07:23:57.544Z,82.83
2023-11-21T07:26:23.937Z,83.28
2023-11-21T07:28:50.386Z,82.93
2023-11-21T07:31:16.822Z,82.99
2023-11-21T07:33:43.181Z,82.63
2023-11-21T07:36:09.616Z,82.43
2023-11-21T07:38:35.996Z,80.51
2023-11-21T07:41:02.508Z,80.07
2023-11-21T07:43:28.921Z,80.05
2023-11-21T07:45:56.424Z,79.93
2023-11-21T07:48:22.961Z,79.21
2023-11-21T07:50:49.372Z,78.90
2023-11-21T07:53:15.783Z,77.43
2023-11-21T07:55:42.215Z,77.30
2023-11-21T07:58:08.613Z,77.54
2023-11-21T08:00:35.030Z,77.91
2023-11-21T08:03:01.487Z,79.10
2023-11-21T08:05:34.829Z,80.58
2023-11-21T08:07:54.255Z,80.98
2023-11-21T08:10:20.682Z,80.75
2023-11-21T08:12:47.090Z,81.54
2023-11-21T08:15:13.540Z,82.03
2023-11-21T08:17:40.052Z,80.71
2023-11-21T08:20:06.425Z,79.56
2023-11-21T08:22:32.816Z,79.02
2023-11-21T08:24:59.319Z,78.83
2023-11-21T08:27:25.663Z,77.61
2023-11-21T08:29:52.172Z,77.65
2023-11-21T08:32:18.547Z,76.85
2023-11-21T08:34:45.080Z,76.29
2023-11-21T08:37:11.372Z,77.28
2023-11-21T08:39:37.856Z,77.56
2023-11-21T08:42:04.247Z,77.12
2023-11-21T08:44:30.709Z,76.90
2023-11-21T08:46:57.093Z,77.17
2023-11-21T08:49:23.492Z,76.71
2023-11-21T08:51:49.887Z,76.58
2023-11-21T08:54:16.307Z,76.39
2023-11-21T08:56:42.717Z,75.94
2023-11-21T08:59:09.315Z,75.51
2023-11-21T09:01:35.731Z,75.42
2023-11-21T09:04:02.129Z,74.87
2023-11-21T09:06:28.435Z,74.51
2023-11-21T09:08:54.920Z,74.45
2023-11-21T09:11:21.249Z,74.73
2023-11-21T09:13:47.650Z,75.54
2023-11-21T09:16:14.045Z,75.44
2023-11-21T09:18:40.441Z,76.74
2023-11-21T09:21:06.818Z,77.69
2023-11-21T09:23:33.218Z,77.39
2023-11-21T09:25:59.606Z,77.22
2023-11-21T09:28:26.082Z,77.67
2023-11-21T09:30:52.432Z,78.01
2023-11-21T09:33:18.828Z,77.07
2023-11-21T09:35:45.311Z,76.87
2023-11-21T09:38:11.895Z,75.97
2023-11-21T09:40:38.113Z,74.96
2023-11-21T09:43:04.553Z,73.23
2023-11-21T09:45:30.925Z,72.82
2023-11-21T09:47:57.433Z,72.25
2023-11-21T09:50:23.701Z,71.13
2023-11-21T09:52:50.204Z,70.71
2023-11-21T09:55:16.535Z,70.41
2023-11-21T09:57:42.989Z,70.83
2023-11-21T10:00:09.345Z,70.69
2023-11-21T10:02:35.948Z,70.42
2023-11-21T10:05:02.209Z,69.21
2023-11-21T10:07:28.630Z,68.33
2023-11-21T10:09:54.968Z,68.08
2023-11-21T10:12:21.429Z,67.55
2023-11-21T10:14:47.833Z,64.07
2023-11-21T10:17:14.318Z,64.12
2023-11-21T10:19:40.784Z,63.66
2023-11-21T10:22:07.116Z,62.15
2023-11-21T10:24:41.425Z,60.58
2023-11-21T10:26:59.970Z,60.86
2023-11-21T10:29:26.356Z,61.14
2023-11-21T10:31:53.026Z,62.19
2023-11-21T10:34:19.151Z,63.21
2023-11-21T10:36:45.627Z,64.08
2023-11-21T10:39:12.013Z,64.09
2023-11-21T10:41:38.413Z,64.26
2023-11-21T10:44:04.874Z,64.30
2023-11-21T10:46:31.434Z,64.57
2023-11-21T10:48:57.713Z,64.32
2023-11-21T10:51:24.164Z,64.86
2023-11-21T10:53:50.560Z,64.98
2023-11-21T10:56:16.972Z,64.55
2023-11-21T10:58:43.403Z,65.09
2023-11-21T11:01:09.818Z,65.18
2023-11-21T11:03:36.270Z,65.86
2023-11-21T11:06:02.900Z,66.10
2023-11-21T11:08:29.266Z,66.53
2023-11-21T11:10:55.769Z,67.25
2023-11-21T11:13:22.091Z,67.30
2023-11-21T11:15:48.538Z,67.55
2023-11-21T11:18:15.100Z,68.00
2023-11-21T11:20:41.500Z,67.57
2023-11-21T11:23:07.924Z,67.47
2023-11-21T11:25:34.304Z,67.46
2023-11-21T11:28:00.714Z,67.50
2023-11-21T11:30:27.191Z,67.14
2023-11-21T11:32:53.603Z,67.02
2023-11-21T11:35:19.969Z,66.79
2023-11-21T11:37:50.624Z,66.97
2023-11-21T11:40:17.233Z,67.14
2023-11-21T11:42:45.775Z,66.61
2023-11-21T11:45:12.278Z,66.69
2023-11-21T11:47:38.883Z,66.80
2023-11-21T11:50:05.199Z,67.50
2023-11-21T11:52:31.535Z,68.35
2023-11-21T11:54:57.921Z,69.35
2023-11-21T11:57:24.327Z,69.72
2023-11-21T11:59:50.740Z,70.50
2023-11-21T12:02:17.224Z,71.28
2023-11-21T12:04:43.714Z,72.07
2023-11-21T12:07:09.955Z,73.05
2023-11-21T12:09:36.403Z,74.28
2023-11-21T12:12:02.759Z,74.10
2023-11-21T12:14:29.214Z,75.65
2023-11-21T12:16:55.640Z,76.93
2023-11-21T12:19:22.045Z,77.99
2023-11-21T12:21:48.424Z,79.76
2023-11-21T12:24:15.319Z,80.44
2023-11-21T12:26:41.259Z,81.38
2023-11-21T12:29:07.724Z,82.10
2023-11-21T12:31:34.213Z,83.03
2023-11-21T12:34:00.549Z,84.03
2023-11-21T12:36:26.893Z,84.54
2023-11-21T12:38:53.334Z,85.12
2023-11-21T12:41:19.739Z,86.07
2023-11-21T12:43:46.229Z,86.55
2023-11-21T12:46:12.569Z,86.50
2023-11-21T12:48:39.004Z,87.31
2023-11-21T12:51:05.374Z,87.56
2023-11-21T12:53:31.831Z,86.94
2023-11-21T12:55:58.257Z,86.09
2023-11-21T12:58:24.659Z,86.02
2023-11-21T13:00:51.038Z,85.59
2023-11-21T13:03:17.630Z,85.80
2023-11-21T13:05:44.226Z,86.46
2023-11-21T13:08:10.312Z,87.10
2023-11-21T13:10:36.804Z,86.16
2023-11-21T13:13:03.142Z,85.74
2023-11-21T13:15:29.581Z,85.25
2023-11-21T13:17:55.997Z,84.54
2023-11-21T13:20:22.366Z,85.39
2023-11-21T13:22:48.834Z,84.86
2023-11-21T13:25:15.212Z,84.93
2023-11-21T13:27:41.772Z,85.08
2023-11-21T13:30:08.146Z,84.34
2023-11-21T13:32:34.551Z,84.35
2023-11-21T13:35:00.917Z,84.77
2023-11-21T13:37:27.341Z,84.88
2023-11-21T13:39:53.765Z,84.81
2023-11-21T13:42:20.174Z,84.90
2023-11-21T13:44:46.537Z,83.95
2023-11-21T13:47:12.954Z,83.64
2023-11-21T13:49:39.457Z,83.86
2023-11-21T13:52:05.879Z,84.37
2023-11-21T13:54:32.297Z,84.67
2023-11-21T13:56:59.604Z,84.61
2023-11-21T13:59:25.126Z,84.56
2023-11-21T14:01:51.610Z,84.26
2023-11-21T14:04:17.941Z,84.52
2023-11-21T14:06:44.335Z,84.50
2023-11-21T14:09:10.808Z,84.53
2023-11-21T14:11:43.280Z,84.25
2023-11-21T14:14:03.641Z,84.19
2023-11-21T14:16:30.039Z,84.00
2023-11-21T14:18:56.411Z,84.52
2023-11-21T14:21:22.825Z,86.39
2023-11-21T14:23:49.268Z,86.45
2023-11-21T14:26:15.655Z,86.45
2023-11-21T14:28:42.080Z,86.89
2023-11-21T14:31:08.482Z,86.82
2023-11-21T14:33:34.997Z,86.33
2023-11-21T14:36:01.410Z,86.20
2023-11-21T14:38:27.823Z,86.26
2023-11-21T14:40:54.323Z,86.57
2023-11-21T14:43:20.706Z,88.08
2023-11-21T14:45:47.151Z,88.52
2023-11-21T14:48:13.610Z,87.91
2023-11-21T14:50:39.957Z,87.88
2023-11-21T14:53:06.384Z,88.85
2023-11-21T14:55:32.979Z,89.34
2023-11-21T14:57:59.173Z,89.50
2023-11-21T15:00:25.668Z,89.33
2023-11-21T15:02:52.205Z,89.46
2023-11-21T15:05:18.683Z,90.07
2023-11-21T15:07:45.025Z,90.23
2023-11-21T15:10:11.399Z,90.27
2023-11-21T15:12:37.810Z,90.86
2023-11-21T15:15:04.237Z,91.37
2023-11-21T15:17:30.940Z,91.86
2023-11-21T15:19:57.285Z,91.97
2023-11-21T15:22:23.775Z,92.00
2023-11-21T15:24:50.160Z,92.40
2023-11-21T15:27:16.503Z,92.90
2023-11-21T15:29:42.921Z,93.31
2023-11-21T15:32:09.348Z,93.57
2023-11-21T15:34:35.739Z,94.03
2023-11-21T15:37:02.127Z,94.25
2023-11-21T15:39:28.558Z,93.75
2023-11-21T15:41:54.975Z,93.35
2023-11-21T15:44:21.401Z,93.96
2023-11-21T15:46:47.861Z,93.31
2023-11-21T15:49:14.307Z,93.34
2023-11-21T15:51:40.710Z,92.98
2023-11-21T15:54:07.176Z,93.23
2023-11-21T15:56:33.557Z,93.62
2023-11-21T15:59:01.077Z,93.48
2023-11-21T16:01:27.443Z,93.77
2023-11-21T16:03:53.930Z,94.13
2023-11-21T16:06:22.681Z,94.29
2023-11-21T16:08:49.084Z,94.59
2023-11-21T16:11:15.450Z,94.16
2023-11-21T16:13:41.911Z,94.34
2023-11-21T16:16:08.357Z,94.51
2023-11-21T16:18:34.856Z,94.94
2023-11-21T16:21:01.648Z,95.16
2023-11-21T16:23:28.050Z,95.05
2023-11-21T16:25:54.441Z,95.08
2023-11-21T16:28:20.962Z,95.30
2023-11-21T16:30:47.395Z,95.73
2023-11-21T16:33:13.856Z,95.99
2023-11-21T16:35:40.310Z,95.86
2023-11-21T16:38:06.750Z,95.53
2023-11-21T16:40:33.308Z,95.94
2023-11-21T16:42:59.744Z,96.49
2023-11-21T16:45:26.134Z,96.61
2023-11-21T16:47:52.628Z,96.72
2023-11-21T16:50:19.001Z,96.65
2023-11-21T16:52:45.464Z,96.75
2023-11-21T16:55:11.829Z,97.45
2023-11-21T16:57:38.213Z,97.52
2023-11-21T17:00:04.662Z,97.74
2023-11-21T17:02:31.097Z,97.95
2023-11-21T17:04:57.497Z,97.67
2023-11-21T17:07:24.245Z,97.85
2023-11-21T17:09:50.448Z,97.81
2023-11-21T17:12:17.112Z,98.09
2023-11-21T17:14:43.376Z,98.29
2023-11-21T17:17:09.936Z,97.97
2023-11-21T17:19:36.227Z,97.90
2023-11-21T17:22:02.761Z,97.79
2023-11-21T17:24:31.356Z,97.27
2023-11-21T17:26:57.917Z,97.22
2023-11-21T17:29:24.343Z,97.60
2023-11-21T17:31:50.756Z,97.61
2023-11-21T17:34:17.335Z,98.55
2023-11-21T17:36:44.020Z,97.97
2023-11-21T17:39:10.427Z,97.82
2023-11-21T17:41:36.860Z,97.94
2023-11-21T17:44:03.456Z,98.03
2023-11-21T17:46:29.851Z,98.24
2023-11-21T17:48:56.285Z,98.02
2023-11-21T17:51:22.682Z,97.52
2023-11-21T17:53:49.085Z,97.57
2023-11-21T17:56:16.612Z,98.05
2023-11-21T17:58:41.994Z,98.21
2023-11-21T18:01:08.421Z,98.20
2023-11-21T18:03:34.809Z,98.44
2023-11-21T18:06:01.133Z,98.18
2023-11-21T18:08:27.599Z,98.23
2023-11-21T18:10:54.013Z,98.44
2023-11-21T18:13:20.439Z,98.40
2023-11-21T18:15:46.829Z,97.87
2023-11-21T18:18:13.481Z,97.29
2023-11-21T18:20:39.811Z,97.20
2023-11-21T18:23:06.510Z,97.07
2023-11-21T18:25:32.889Z,97.24
2023-11-21T18:27:59.379Z,97.05
2023-11-21T18:30:26.099Z,97.18
2023-11-21T18:32:52.603Z,97.79
2023-11-21T18:35:18.999Z,98.35
2023-11-21T18:37:45.426Z,98.98
2023-11-21T18:40:11.981Z,99.80
2023-11-21T18:42:38.308Z,100.00
2023-11-21T18:45:04.740Z,100.00
2023-11-21T18:47:31.692Z,100.00
2023-11-21T18:50:00.427Z,100.00
2023-11-21T18:52:31.231Z,100.00
2023-11-21T18:54:57.667Z,100.00
2023-11-21T18:57:24.068Z,100.00
2023-11-21T18:59:50.470Z,100.00
2023-11-21T19:02:17.068Z,100.00
2023-11-21T19:04:43.377Z,100.00
2023-11-21T19:07:09.979Z,100.00
2023-11-21T19:09:36.694Z,100.00
2023-11-21T19:12:03.089Z,100.00
2023-11-21T19:14:29.381Z,100.00
2023-11-21T19:16:55.940Z,100.00
2023-11-21T19:19:22.292Z,100.00
2023-11-21T19:21:48.710Z,100.00
2023-11-21T19:24:15.068Z,100.00
2023-11-21T19:26:41.511Z,100.00
2023-11-21T19:29:07.929Z,100.00
2023-11-21T19:31:34.300Z,100.00
2023-11-21T19:34:00.670Z,100.00
2023-11-21T19:36:27.165Z,100.00
2023-11-21T19:38:53.700Z,100.00
2023-11-21T19:41:20.238Z,100.00
2023-11-21T19:43:46.587Z,100.00
2023-11-21T19:46:12.973Z,100.00
2023-11-21T19:48:39.432Z,100.00
2023-11-21T19:51:05.838Z,100.00
2023-11-21T19:53:32.207Z,100.00
2023-11-21T19:55:58.628Z,100.00
2023-11-21T19:58:25.016Z,100.00
2023-11-21T20:00:51.416Z,100.00
2023-11-21T20:03:17.972Z,100.00
2023-11-21T20:05:44.293Z,100.00
2023-11-21T20:08:10.703Z,100.00
2023-11-21T20:10:37.089Z,100.00
2023-11-21T20:13:07.363Z,100.00
2023-11-21T20:15:29.932Z,100.00
2023-11-21T20:17:56.359Z,100.00
2023-11-21T20:20:22.798Z,100.00
2023-11-21T20:22:49.253Z,100.00
2023-11-21T20:25:15.671Z,100.00
2023-11-21T20:27:42.043Z,100.00
2023-11-21T20:30:08.670Z,100.00
2023-11-21T20:32:35.140Z,100.00
2023-11-21T20:35:01.575Z,100.00
2023-11-21T20:37:27.962Z,100.00
2023-11-21T20:39:54.442Z,100.00
2023-11-21T20:42:20.845Z,100.00
2023-11-21T20:44:47.291Z,100.00
2023-11-21T20:47:13.899Z,100.00
2023-11-21T20:49:48.022Z,100.00
2023-11-21T20:52:06.531Z,100.00
2023-11-21T20:54:33.028Z,100.00
2023-11-21T20:56:59.406Z,100.00
2023-11-21T20:59:26.236Z,100.00
2023-11-21T21:01:52.675Z,100.00
2023-11-21T21:04:19.003Z,100.00
2023-11-21T21:06:45.429Z,100.00
2023-11-21T21:09:11.834Z,100.00
2023-11-21T21:11:38.204Z,100.00
2023-11-21T21:14:04.921Z,100.00
2023-11-21T21:16:31.288Z,100.00
2023-11-21T21:18:57.692Z,100.00
2023-11-21T21:21:24.221Z,100.00
2023-11-21T21:23:50.756Z,100.00
2023-11-21T21:26:17.136Z,100.00
2023-11-21T21:28:43.595Z,100.00
2023-11-21T21:31:10.033Z,100.00
2023-11-21T21:33:36.575Z,100.00
2023-11-21T21:36:03.113Z,100.00
2023-11-21T21:38:29.699Z,100.00
2023-11-21T21:40:56.085Z,100.00
2023-11-21T21:43:22.515Z,100.00
2023-11-21T21:45:48.871Z,100.00
2023-11-21T21:48:15.345Z,100.00
2023-11-21T21:50:41.896Z,100.00
2023-11-21T21:53:08.447Z,100.00
2023-11-21T21:55:34.754Z,100.00
2023-11-21T21:58:01.319Z,100.00
2023-11-21T22:00:27.611Z,100.00
2023-11-21T22:02:54.288Z,99.96
2023-11-21T22:05:20.517Z,100.00
2023-11-21T22:07:47.159Z,100.00
2023-11-21T22:10:13.509Z,100.00
2023-11-21T22:12:39.964Z,100.00
2023-11-21T22:15:06.335Z,100.00
2023-11-21T22:17:32.937Z,100.00
2023-11-21T22:19:59.249Z,99.95
2023-11-21T22:22:25.632Z,99.64
2023-11-21T22:24:52.065Z,99.73
2023-11-21T22:27:18.538Z,99.42
2023-11-21T22:29:45.004Z,99.19
2023-11-21T22:32:11.527Z,99.07
2023-11-21T22:34:37.908Z,99.22
2023-11-21T22:37:04.351Z,99.22
2023-11-21T22:39:30.709Z,99.23
2023-11-21T22:41:57.197Z,99.53
2023-11-21T22:44:23.575Z,100.00
2023-11-21T22:46:50.122Z,100.00
2023-11-21T22:49:16.399Z,100.00
2023-11-21T22:51:42.947Z,99.64
2023-11-21T22:54:09.339Z,99.37
2023-11-21T22:56:35.803Z,99.74
2023-11-21T22:59:02.188Z,99.48
2023-11-21T23:01:28.716Z,98.97
2023-11-21T23:03:55.131Z,98.67
2023-11-21T23:06:21.452Z,97.95
2023-11-21T23:08:47.813Z,97.81
2023-11-21T23:11:14.330Z,98.25
2023-11-21T23:13:40.831Z,98.68
2023-11-21T23:16:07.380Z,98.55
2023-11-21T23:18:33.756Z,98.66
2023-11-21T23:21:00.130Z,98.78
2023-11-21T23:23:26.525Z,98.49
2023-11-21T23:25:52.989Z,98.75
2023-11-21T23:28:19.327Z,98.84
2023-11-21T23:30:45.726Z,99.03
2023-11-21T23:33:12.142Z,99.47
2023-11-21T23:35:38.562Z,99.29
2023-11-21T23:38:04.935Z,99.12
2023-11-21T23:40:31.394Z,98.87
2023-11-21T23:42:57.808Z,99.01
2023-11-21T23:45:24.256Z,99.06
2023-11-21T23:47:50.636Z,98.96
2023-11-21T23:50:17.084Z,99.17
2023-11-21T23:52:43.407Z,99.21
2023-11-21T23:55:10.103Z,100.00
2023-11-21T23:57:36.569Z,100.00
